createdAt,value
2022-11-29T00:01:01.752Z,52.35
2022-11-29T00:03:29.229Z,52.51
2022-11-29T00:05:55.907Z,52.72
2022-11-29T00:08:23.795Z,52.65
2022-11-29T00:10:50.322Z,52.51
2022-11-29T00:13:17.469Z,52.21
2022-11-29T00:15:43.907Z,52.31
2022-11-29T00:18:10.268Z,52.05
2022-11-29T00:20:38.950Z,52.52
2022-11-29T00:23:05.365Z,52.45
2022-11-29T00:25:31.739Z,52.50
2022-11-29T00:27:58.279Z,52.30
2022-11-29T00:30:24.736Z,52.15
2022-11-29T00:32:51.118Z,52.25
2022-11-29T00:35:17.582Z,52.42
2022-11-29T00:37:43.879Z,52.01
2022-11-29T00:40:10.674Z,52.01
2022-11-29T00:42:36.978Z,52.22
2022-11-29T00:45:03.578Z,51.93
2022-11-29T00:47:29.873Z,52.04
2022-11-29T00:49:56.192Z,51.84
2022-11-29T00:52:22.495Z,51.83
2022-11-29T00:54:48.865Z,52.07
2022-11-29T00:57:15.235Z,52.14
2022-11-29T00:59:41.539Z,52.16
2022-11-29T01:02:07.914Z,52.13
2022-11-29T01:04:34.501Z,51.99
2022-11-29T01:07:00.928Z,52.22
2022-11-29T01:09:27.620Z,52.15
2022-11-29T01:11:53.975Z,52.19
2022-11-29T01:14:20.325Z,52.17
2022-11-29T01:16:46.780Z,51.97
2022-11-29T01:19:13.221Z,51.92
2022-11-29T01:21:39.664Z,52.14
2022-11-29T01:24:06.089Z,51.97
2022-11-29T01:26:32.821Z,51.93
2022-11-29T01:28:59.263Z,51.81
2022-11-29T01:31:26.926Z,52.25
2022-11-29T01:33:54.931Z,52.14
2022-11-29T01:36:21.599Z,51.81
2022-11-29T01:38:48.011Z,51.73
2022-11-29T01:41:18.914Z,51.89
2022-11-29T01:44:00.304Z,52.14
2022-11-29T01:46:29.924Z,52.12
2022-11-29T01:49:01.863Z,52.00
2022-11-29T01:51:30.634Z,51.89
2022-11-29T01:53:58.373Z,51.84
2022-11-29T01:56:25.424Z,52.22
2022-11-29T01:58:52.002Z,51.95
2022-11-29T02:01:18.803Z,51.93
2022-11-29T02:03:45.282Z,51.77
2022-11-29T02:06:11.799Z,51.99
2022-11-29T02:08:41.191Z,51.68
2022-11-29T02:11:38.269Z,51.94
2022-11-29T02:14:18.776Z,52.07
2022-11-29T02:16:56.937Z,51.76
2022-11-29T02:19:29.124Z,51.48
2022-11-29T02:22:06.895Z,51.71
2022-11-29T02:25:27.099Z,51.68
2022-11-29T02:28:40.177Z,51.68
2022-11-29T02:31:32.496Z,51.87
2022-11-29T02:34:38.730Z,51.72
2022-11-29T02:37:38.573Z,52.12
2022-11-29T02:40:10.790Z,51.62
2022-11-29T02:43:06.053Z,51.76
2022-11-29T02:45:44.735Z,51.91
2022-11-29T02:48:11.083Z,51.81
2022-11-29T02:50:53.315Z,51.65
2022-11-29T02:53:30.954Z,51.96
2022-11-29T02:56:12.055Z,51.55
2022-11-29T02:58:50.116Z,51.97
2022-11-29T03:01:25.501Z,51.71
2022-11-29T03:04:05.011Z,51.68
2022-11-29T03:06:51.998Z,51.91
2022-11-29T03:09:36.047Z,51.52
2022-11-29T03:12:30.435Z,51.86
2022-11-29T03:15:07.322Z,51.89
2022-11-29T03:18:06.654Z,51.53
2022-11-29T03:21:11.473Z,51.66
2022-11-29T03:23:45.143Z,51.56
2022-11-29T03:26:24.402Z,51.62
2022-11-29T03:28:53.494Z,51.61
2022-11-29T03:31:33.836Z,51.83
2022-11-29T03:34:13.423Z,51.57
2022-11-29T03:36:52.907Z,51.34
2022-11-29T03:39:28.660Z,51.64
2022-11-29T03:42:06.231Z,51.69
2022-11-29T03:44:41.374Z,51.61
2022-11-29T03:47:15.730Z,51.47
2022-11-29T03:49:53.920Z,51.48
2022-11-29T03:52:35.590Z,51.67
2022-11-29T03:55:26.862Z,51.73
2022-11-29T03:58:02.381Z,51.63
2022-11-29T04:00:48.207Z,51.18
2022-11-29T04:03:38.109Z,51.28
2022-11-29T04:06:43.266Z,51.28
2022-11-29T04:09:36.298Z,51.67
2022-11-29T04:12:39.558Z,51.21
2022-11-29T04:15:17.958Z,51.21
2022-11-29T04:18:00.595Z,51.31
2022-11-29T04:20:48.713Z,51.31
2022-11-29T04:23:25.622Z,51.14
2022-11-29T04:26:25.351Z,51.12
2022-11-29T04:29:23.837Z,51.57
2022-11-29T04:31:59.578Z,51.30
2022-11-29T04:34:58.850Z,51.42
2022-11-29T04:38:03.136Z,51.12
2022-11-29T04:41:01.616Z,51.34
2022-11-29T04:44:03.286Z,51.11
2022-11-29T04:46:46.604Z,51.20
2022-11-29T04:49:36.058Z,51.40
2022-11-29T04:52:17.542Z,51.35
2022-11-29T04:55:07.990Z,51.31
2022-11-29T04:57:42.009Z,51.28
2022-11-29T05:00:11.914Z,51.45
2022-11-29T05:02:53.225Z,51.30
2022-11-29T05:05:32.988Z,51.34
2022-11-29T05:08:24.173Z,51.18
2022-11-29T05:11:05.425Z,51.43
2022-11-29T05:13:40.545Z,51.25
2022-11-29T05:16:22.788Z,51.38
2022-11-29T05:19:04.671Z,50.97
2022-11-29T05:22:00.123Z,51.36
2022-11-29T05:24:47.950Z,51.13
2022-11-29T05:27:22.797Z,51.16
2022-11-29T05:30:02.502Z,50.96
2022-11-29T05:32:35.418Z,50.99
2022-11-29T05:35:23.597Z,51.29
2022-11-29T05:37:57.075Z,50.99
2022-11-29T05:40:42.497Z,51.18
2022-11-29T05:43:21.414Z,51.07
2022-11-29T05:46:02.310Z,51.19
2022-11-29T05:48:37.373Z,51.34
2022-11-29T05:51:17.982Z,51.26
2022-11-29T05:53:47.826Z,51.45
2022-11-29T05:56:40.955Z,51.33
2022-11-29T05:59:18.484Z,51.23
2022-11-29T06:02:01.672Z,51.16
2022-11-29T06:04:52.798Z,50.96
2022-11-29T06:07:45.374Z,51.23
2022-11-29T06:10:13.782Z,51.11
2022-11-29T06:12:42.558Z,50.82
2022-11-29T06:15:41.291Z,51.07
2022-11-29T06:18:32.417Z,50.96
2022-11-29T06:21:17.459Z,50.91
2022-11-29T06:23:48.292Z,50.76
2022-11-29T06:26:36.510Z,50.85
2022-11-29T06:29:40.494Z,51.07
2022-11-29T06:32:15.974Z,50.74
2022-11-29T06:34:53.152Z,50.96
2022-11-29T06:37:45.083Z,51.27
2022-11-29T06:40:15.699Z,51.27
2022-11-29T06:42:42.623Z,51.26
2022-11-29T06:45:14.297Z,51.39
2022-11-29T06:47:55.803Z,51.09
2022-11-29T06:50:42.125Z,51.02
2022-11-29T06:53:19.314Z,51.38
2022-11-29T06:56:15.329Z,51.42
2022-11-29T06:58:56.834Z,51.41
2022-11-29T07:01:39.750Z,51.45
2022-11-29T07:04:30.878Z,51.36
2022-11-29T07:06:57.536Z,51.55
2022-11-29T07:09:33.310Z,51.59
2022-11-29T07:11:59.943Z,51.93
2022-11-29T07:14:26.586Z,51.83
2022-11-29T07:17:18.479Z,51.75
2022-11-29T07:20:10.129Z,51.83
2022-11-29T07:22:54.630Z,51.92
2022-11-29T07:25:54.117Z,51.97
2022-11-29T07:29:04.793Z,51.97
2022-11-29T07:31:47.280Z,51.89
2022-11-29T07:34:32.129Z,51.93
2022-11-29T07:37:33.574Z,51.98
2022-11-29T07:40:13.197Z,52.23
2022-11-29T07:42:51.699Z,52.00
2022-11-29T07:45:27.275Z,52.02
2022-11-29T07:47:53.986Z,52.11
2022-11-29T07:50:21.258Z,51.90
2022-11-29T07:52:48.423Z,52.23
2022-11-29T07:55:19.154Z,52.29
2022-11-29T07:57:46.379Z,52.39
2022-11-29T08:00:13.840Z,51.97
2022-11-29T08:02:41.002Z,52.34
2022-11-29T08:05:08.566Z,52.12
2022-11-29T08:07:36.246Z,52.42
2022-11-29T08:10:03.835Z,52.21
2022-11-29T08:12:30.185Z,52.35
2022-11-29T08:14:56.543Z,52.20
2022-11-29T08:17:22.910Z,52.62
2022-11-29T08:19:49.219Z,52.79
2022-11-29T08:22:15.586Z,52.69
2022-11-29T08:24:42.002Z,53.07
2022-11-29T08:27:08.302Z,52.77
2022-11-29T08:29:34.681Z,52.88
2022-11-29T08:32:01.276Z,52.90
2022-11-29T08:34:28.014Z,53.26
2022-11-29T08:36:56.492Z,52.96
2022-11-29T08:39:23.345Z,52.97
2022-11-29T08:41:50.034Z,53.24
2022-11-29T08:44:16.487Z,52.87
2022-11-29T08:47:01.217Z,53.53
2022-11-29T08:49:27.566Z,53.21
2022-11-29T08:52:17.094Z,53.61
2022-11-29T08:54:43.897Z,53.55
2022-11-29T08:57:38.708Z,53.92
2022-11-29T08:59:57.015Z,54.04
2022-11-29T09:02:23.337Z,54.39
2022-11-29T09:04:49.712Z,53.95
2022-11-29T09:07:16.537Z,53.65
2022-11-29T09:09:42.930Z,53.92
2022-11-29T09:12:09.285Z,53.15
2022-11-29T09:14:35.606Z,53.39
2022-11-29T09:17:01.986Z,53.30
2022-11-29T09:19:28.532Z,53.21
2022-11-29T09:21:55.011Z,53.41
2022-11-29T09:24:21.432Z,53.24
2022-11-29T09:26:48.415Z,53.63
2022-11-29T09:29:17.363Z,53.41
2022-11-29T09:31:46.790Z,53.44
2022-11-29T09:34:18.525Z,53.52
2022-11-29T09:36:45.118Z,53.34
2022-11-29T09:39:14.386Z,53.41
2022-11-29T09:41:59.371Z,53.71
2022-11-29T09:44:59.979Z,53.98
2022-11-29T09:48:02.226Z,53.63
2022-11-29T09:50:28.934Z,54.21
2022-11-29T09:53:18.939Z,53.76
2022-11-29T09:56:12.317Z,54.05
2022-11-29T09:58:49.273Z,53.69
2022-11-29T10:01:28.348Z,53.44
2022-11-29T10:03:59.736Z,54.01
2022-11-29T10:06:57.051Z,53.62
2022-11-29T10:09:47.843Z,53.73
2022-11-29T10:12:20.329Z,53.41
2022-11-29T10:15:25.726Z,53.42
2022-11-29T10:17:58.938Z,53.35
2022-11-29T10:20:40.458Z,53.39
2022-11-29T10:23:23.586Z,53.64
2022-11-29T10:25:53.191Z,53.35
2022-11-29T10:28:26.566Z,53.27
2022-11-29T10:30:55.278Z,53.26
2022-11-29T10:33:37.029Z,53.50
2022-11-29T10:36:07.728Z,53.38
2022-11-29T10:38:34.077Z,53.36
2022-11-29T10:41:15.802Z,53.34
2022-11-29T10:43:43.103Z,53.55
2022-11-29T10:46:29.776Z,53.17
2022-11-29T10:48:59.338Z,53.37
2022-11-29T10:51:25.829Z,53.34
2022-11-29T10:53:54.635Z,53.42
2022-11-29T10:56:34.512Z,53.56
2022-11-29T10:59:05.266Z,53.42
2022-11-29T11:01:35.903Z,53.69
2022-11-29T11:04:04.234Z,53.60
2022-11-29T11:06:49.710Z,53.72
2022-11-29T11:09:29.219Z,53.41
2022-11-29T11:11:58.747Z,53.46
2022-11-29T11:14:34.444Z,53.74
2022-11-29T11:17:20.731Z,53.35
2022-11-29T11:20:27.750Z,53.39
2022-11-29T11:23:03.528Z,53.66
2022-11-29T11:25:37.074Z,53.70
2022-11-29T11:28:24.081Z,53.72
2022-11-29T11:31:00.271Z,53.61
2022-11-29T11:33:34.816Z,53.63
2022-11-29T11:36:04.146Z,53.92
2022-11-29T11:38:30.875Z,53.68
2022-11-29T11:41:20.860Z,54.00
2022-11-29T11:43:59.227Z,53.61
2022-11-29T11:46:47.325Z,53.86
2022-11-29T11:49:24.533Z,53.85
2022-11-29T11:51:50.915Z,53.83
2022-11-29T11:54:17.478Z,54.22
2022-11-29T11:56:43.990Z,53.01
2022-11-29T11:59:20.197Z,53.67
2022-11-29T12:01:46.734Z,53.59
2022-11-29T12:04:19.063Z,53.57
2022-11-29T12:07:05.638Z,53.97
2022-11-29T12:09:52.708Z,53.68
2022-11-29T12:12:32.895Z,54.18
2022-11-29T12:15:08.440Z,53.97
2022-11-29T12:17:57.441Z,54.05
2022-11-29T12:20:26.031Z,54.30
2022-11-29T12:23:11.188Z,53.96
2022-11-29T12:26:34.462Z,54.03
2022-11-29T12:29:01.084Z,54.17
2022-11-29T12:31:39.569Z,54.39
2022-11-29T12:34:22.573Z,54.39
2022-11-29T12:36:58.202Z,54.28
2022-11-29T12:39:42.331Z,54.37
2022-11-29T12:42:45.666Z,54.09
2022-11-29T12:45:27.521Z,54.11
2022-11-29T12:48:10.103Z,54.33
2022-11-29T12:50:48.915Z,54.16
2022-11-29T12:53:27.661Z,54.43
2022-11-29T12:56:06.447Z,54.20
2022-11-29T12:58:32.706Z,54.01
2022-11-29T13:01:12.484Z,54.62
2022-11-29T13:03:51.114Z,54.30
2022-11-29T13:06:48.019Z,54.30
2022-11-29T13:09:29.420Z,53.92
2022-11-29T13:12:02.214Z,53.93
2022-11-29T13:14:43.710Z,53.91
2022-11-29T13:17:51.527Z,54.14
2022-11-29T13:20:23.055Z,54.19
2022-11-29T13:23:20.811Z,54.28
2022-11-29T13:25:51.158Z,54.02
2022-11-29T13:28:30.247Z,54.47
2022-11-29T13:31:02.448Z,54.26
2022-11-29T13:33:51.021Z,54.37
2022-11-29T13:36:47.026Z,54.37
2022-11-29T13:39:19.386Z,54.29
2022-11-29T13:42:04.583Z,54.42
2022-11-29T13:44:40.407Z,54.28
2022-11-29T13:47:11.061Z,54.17
2022-11-29T13:49:58.009Z,54.20
2022-11-29T13:52:37.466Z,54.13
2022-11-29T13:55:11.669Z,54.23
2022-11-29T13:58:15.397Z,54.39
2022-11-29T14:00:42.222Z,54.13
2022-11-29T14:03:23.894Z,54.25
2022-11-29T14:05:52.041Z,54.39
2022-11-29T14:09:18.482Z,54.33
2022-11-29T14:11:50.734Z,54.32
2022-11-29T14:14:26.150Z,54.21
2022-11-29T14:17:17.003Z,54.46
2022-11-29T14:19:43.422Z,54.30
2022-11-29T14:22:17.643Z,54.27
2022-11-29T14:24:56.347Z,54.35
2022-11-29T14:27:22.600Z,54.44
2022-11-29T14:29:55.014Z,54.33
2022-11-29T14:32:45.938Z,54.62
2022-11-29T14:35:12.639Z,54.69
2022-11-29T14:37:57.686Z,54.39
2022-11-29T14:40:45.429Z,54.37
2022-11-29T14:43:30.819Z,54.38
2022-11-29T14:46:20.323Z,54.18
2022-11-29T14:48:54.612Z,54.33
2022-11-29T14:51:22.672Z,54.11
2022-11-29T14:54:03.651Z,54.39
2022-11-29T14:56:34.649Z,54.39
2022-11-29T14:59:38.481Z,54.43
2022-11-29T15:02:14.814Z,54.69
2022-11-29T15:04:41.638Z,54.63
2022-11-29T15:07:16.970Z,55.11
2022-11-29T15:09:46.387Z,54.99
2022-11-29T15:12:18.921Z,55.10
2022-11-29T15:15:20.888Z,55.19
2022-11-29T15:18:06.927Z,54.71
2022-11-29T15:20:54.792Z,54.73
2022-11-29T15:23:21.276Z,54.85
2022-11-29T15:25:52.508Z,54.50
2022-11-29T15:28:24.548Z,54.82
2022-11-29T15:31:10.716Z,54.51
2022-11-29T15:33:40.627Z,54.61
2022-11-29T15:36:10.725Z,54.67
2022-11-29T15:38:48.954Z,54.70
2022-11-29T15:41:29.950Z,54.35
2022-11-29T15:44:05.562Z,54.68
2022-11-29T15:46:34.084Z,54.43
2022-11-29T15:49:22.865Z,54.26
2022-11-29T15:51:55.021Z,54.41
2022-11-29T15:54:53.491Z,54.56
2022-11-29T15:57:29.806Z,54.45
2022-11-29T16:00:01.018Z,54.55
2022-11-29T16:02:33.377Z,54.13
2022-11-29T16:05:22.634Z,54.01
2022-11-29T16:07:53.183Z,54.12
2022-11-29T16:10:21.646Z,54.25
2022-11-29T16:12:56.326Z,54.19
2022-11-29T16:15:34.595Z,54.25
2022-11-29T16:18:23.422Z,54.13
2022-11-29T16:21:00.076Z,54.30
2022-11-29T16:23:42.139Z,53.75
2022-11-29T16:26:18.894Z,53.88
2022-11-29T16:28:47.559Z,54.61
2022-11-29T16:31:23.520Z,53.88
2022-11-29T16:33:52.415Z,54.55
2022-11-29T16:36:25.139Z,54.19
2022-11-29T16:38:56.033Z,54.16
2022-11-29T16:41:37.001Z,54.57
2022-11-29T16:44:05.431Z,54.70
2022-11-29T16:46:39.445Z,54.01
2022-11-29T16:49:33.461Z,53.64
2022-11-29T16:52:00.145Z,52.05
2022-11-29T16:54:33.815Z,51.78
2022-11-29T16:57:05.096Z,51.96
2022-11-29T16:59:32.370Z,51.92
2022-11-29T17:01:59.028Z,51.43
2022-11-29T17:04:26.107Z,50.94
2022-11-29T17:06:56.292Z,51.47
2022-11-29T17:09:28.361Z,51.57
2022-11-29T17:11:56.005Z,50.45
2022-11-29T17:14:23.059Z,49.99
2022-11-29T17:16:49.692Z,49.76
2022-11-29T17:19:16.748Z,50.37
2022-11-29T17:21:43.204Z,49.64
2022-11-29T17:24:12.899Z,49.59
2022-11-29T17:26:40.767Z,49.25
2022-11-29T17:29:07.582Z,49.48
2022-11-29T17:31:34.056Z,50.43
2022-11-29T17:34:00.757Z,49.25
2022-11-29T17:36:27.604Z,50.37
2022-11-29T17:38:54.310Z,50.36
2022-11-29T17:41:23.756Z,49.95
2022-11-29T17:43:51.645Z,49.21
2022-11-29T17:46:23.600Z,49.08
2022-11-29T17:48:52.155Z,49.30
2022-11-29T17:51:49.949Z,48.94
2022-11-29T17:54:08.311Z,50.06
2022-11-29T17:56:34.810Z,50.01
2022-11-29T17:59:02.770Z,50.29
2022-11-29T18:01:31.753Z,50.08
2022-11-29T18:04:00.566Z,53.03
2022-11-29T18:06:35.942Z,50.30
2022-11-29T18:09:03.763Z,50.60
2022-11-29T18:11:43.001Z,52.00
2022-11-29T18:14:15.373Z,53.04
2022-11-29T18:16:42.026Z,53.60
2022-11-29T18:19:12.587Z,53.51
2022-11-29T18:21:39.654Z,53.46
2022-11-29T18:24:06.993Z,53.69
2022-11-29T18:26:34.906Z,53.65
2022-11-29T18:29:01.582Z,53.90
2022-11-29T18:31:33.286Z,54.33
2022-11-29T18:34:01.865Z,54.14
2022-11-29T18:36:31.097Z,54.20
2022-11-29T18:39:00.450Z,54.30
2022-11-29T18:41:31.030Z,54.72
2022-11-29T18:44:06.303Z,54.46
2022-11-29T18:46:33.360Z,54.07
2022-11-29T18:49:00.897Z,54.54
2022-11-29T18:51:29.319Z,54.10
2022-11-29T18:53:56.562Z,54.41
2022-11-29T18:56:24.834Z,54.54
2022-11-29T18:58:59.995Z,54.08
2022-11-29T19:01:28.790Z,54.46
2022-11-29T19:03:57.925Z,54.68
2022-11-29T19:06:32.955Z,54.32
2022-11-29T19:09:07.140Z,54.41
2022-11-29T19:11:34.254Z,54.32
2022-11-29T19:14:03.854Z,54.55
2022-11-29T19:16:33.214Z,54.89
2022-11-29T19:19:00.902Z,54.85
2022-11-29T19:21:29.318Z,55.10
2022-11-29T19:24:00.936Z,55.10
2022-11-29T19:26:28.894Z,55.11
2022-11-29T19:28:55.346Z,54.79
2022-11-29T19:31:26.955Z,54.90
2022-11-29T19:33:55.006Z,55.16
2022-11-29T19:36:24.505Z,55.17
2022-11-29T19:38:53.763Z,54.72
2022-11-29T19:41:26.514Z,55.02
2022-11-29T19:43:53.282Z,54.97
2022-11-29T19:46:22.185Z,55.07
2022-11-29T19:48:49.034Z,54.82
2022-11-29T19:51:18.839Z,54.99
2022-11-29T19:53:46.419Z,55.02
2022-11-29T19:56:16.058Z,54.98
2022-11-29T19:58:43.398Z,54.87
2022-11-29T20:01:11.611Z,55.17
2022-11-29T20:03:38.850Z,54.64
2022-11-29T20:06:05.668Z,55.12
2022-11-29T20:08:32.554Z,55.00
2022-11-29T20:11:06.966Z,54.94
2022-11-29T20:13:33.440Z,54.87
2022-11-29T20:16:11.782Z,54.89
2022-11-29T20:18:45.820Z,54.55
2022-11-29T20:21:20.401Z,54.72
2022-11-29T20:23:46.992Z,54.61
2022-11-29T20:26:16.059Z,54.38
2022-11-29T20:28:43.386Z,54.58
2022-11-29T20:31:12.915Z,54.29
2022-11-29T20:33:41.713Z,54.25
2022-11-29T20:36:22.839Z,54.47
2022-11-29T20:39:03.435Z,54.29
2022-11-29T20:41:48.469Z,54.42
2022-11-29T20:44:24.145Z,54.28
2022-11-29T20:46:50.670Z,54.20
2022-11-29T20:49:18.313Z,54.24
2022-11-29T20:51:57.745Z,53.72
2022-11-29T20:54:24.206Z,53.83
2022-11-29T20:56:50.582Z,54.09
2022-11-29T20:59:16.952Z,54.10
2022-11-29T21:01:43.326Z,54.00
2022-11-29T21:04:09.678Z,54.08
2022-11-29T21:06:39.466Z,53.72
2022-11-29T21:09:06.485Z,53.96
2022-11-29T21:11:33.040Z,53.61
2022-11-29T21:14:03.735Z,53.76
2022-11-29T21:16:31.622Z,53.38
2022-11-29T21:19:00.463Z,53.57
2022-11-29T21:22:06.017Z,53.80
2022-11-29T21:24:47.778Z,53.37
2022-11-29T21:27:19.867Z,53.77
2022-11-29T21:29:46.568Z,53.59
2022-11-29T21:32:22.090Z,53.34
2022-11-29T21:34:48.818Z,53.54
2022-11-29T21:37:18.488Z,53.31
2022-11-29T21:39:45.309Z,53.65
2022-11-29T21:42:11.757Z,53.29
2022-11-29T21:44:38.356Z,53.31
2022-11-29T21:47:04.813Z,53.44
2022-11-29T21:49:31.519Z,53.14
2022-11-29T21:52:00.921Z,53.36
2022-11-29T21:54:28.286Z,53.24
2022-11-29T21:56:55.423Z,53.50
2022-11-29T21:59:24.491Z,53.38
2022-11-29T22:01:52.266Z,53.29
2022-11-29T22:04:18.660Z,53.18
2022-11-29T22:06:45.009Z,53.26
2022-11-29T22:09:11.408Z,53.26
2022-11-29T22:11:37.902Z,53.14
2022-11-29T22:14:13.489Z,53.11
2022-11-29T22:16:50.067Z,53.03
2022-11-29T22:19:20.118Z,52.83
2022-11-29T22:21:52.198Z,53.03
2022-11-29T22:24:21.070Z,52.74
2022-11-29T22:26:48.437Z,53.19
2022-11-29T22:29:15.246Z,52.68
2022-11-29T22:31:43.908Z,52.79
2022-11-29T22:34:11.112Z,52.67
2022-11-29T22:36:38.492Z,52.94
2022-11-29T22:39:06.496Z,52.79
2022-11-29T22:41:34.444Z,52.54
2022-11-29T22:44:00.807Z,52.49
2022-11-29T22:46:28.449Z,52.70
2022-11-29T22:48:56.506Z,52.62
2022-11-29T22:51:26.150Z,52.46
2022-11-29T22:53:59.974Z,52.69
2022-11-29T22:56:29.607Z,52.51
2022-11-29T22:58:56.175Z,52.58
2022-11-29T23:01:25.529Z,52.37
2022-11-29T23:03:54.191Z,52.70
2022-11-29T23:06:21.611Z,52.16
2022-11-29T23:08:49.042Z,52.13
2022-11-29T23:11:19.746Z,52.31
2022-11-29T23:13:46.148Z,52.10
2022-11-29T23:16:18.835Z,52.40
2022-11-29T23:18:46.346Z,52.07
2022-11-29T23:21:22.031Z,51.99
2022-11-29T23:23:53.043Z,52.41
2022-11-29T23:26:31.478Z,52.45
2022-11-29T23:28:58.294Z,52.14
2022-11-29T23:31:25.167Z,52.24
2022-11-29T23:33:51.703Z,52.06
2022-11-29T23:36:18.803Z,52.16
2022-11-29T23:38:45.557Z,51.96
2022-11-29T23:41:12.298Z,52.19
2022-11-29T23:43:40.624Z,52.07
2022-11-29T23:46:08.656Z,52.22
2022-11-29T23:48:35.079Z,51.73
2022-11-29T23:51:01.658Z,51.86
2022-11-29T23:53:28.050Z,51.92
2022-11-29T23:55:59.453Z,51.78
2022-11-29T23:58:26.258Z,51.70
